Dades de l'estació automàtica Solsona
Resum diari
21:30 TU| Temperatura mitjana | 12.9 °C | |
|---|---|---|
| Temperatura màxima | 20.5 °C | 11:11 TU |
| Temperatura mínima | 7.9 °C | 21:32 TU |
| Humitat relativa mitjana | 87% | |
| Precipitació acumulada | 6.4 mm | |
| Ratxa màxima del vent (10 m) | 43.6 km/h - 275º | 19:04 TU |
| Pressió atmosfèrica mitjana | 1012.1 hPa | |
| Irradiació solar global | 14.1 MJ/m2 | |
El tram horari està expressat en Temps Universal (TU). Cal sumar una hora en horari d'hivern i dues en horari d'estiu per passar a l'hora oficial.
Solsona
| Municipi | Solsona |
|---|---|
| Comarca | Solsonès |
| Altitud | 692 m |
| Data alta | 12.07.2012 |
| Estat actual | Operativa |
| Període TU |
TM °C |
TX °C |
TN °C |
HRM % |
PPT mm |
VVM (10 m) km/h |
DVM (10 m) graus |
VVX (10 m) km/h |
PM hPa |
RS W/m2 |
|---|---|---|---|---|---|---|---|---|---|---|
| 00:00 - 00:30 | 10.5 | 10.6 | 10.4 | 95 | 0.0 | 2.9 | 271 | 7.6 | 1014.8 | 0 |
| 00:30 - 01:00 | 10.7 | 10.8 | 10.6 | 94 | 0.0 | 1.8 | 241 | 6.1 | 1014.7 | 0 |
| 01:00 - 01:30 | 10.7 | 10.8 | 10.7 | 95 | 0.0 | 0.4 | 104 | 2.9 | 1014.4 | 0 |
| 01:30 - 02:00 | 10.7 | 10.8 | 10.6 | 95 | 0.0 | 0.7 | 217 | 4.3 | 1014.2 | 0 |
| 02:00 - 02:30 | 10.4 | 10.6 | 10.3 | 95 | 0.0 | 2.5 | 281 | 6.1 | 1014.0 | 0 |
| 02:30 - 03:00 | 10.3 | 10.6 | 10.2 | 96 | 0.0 | 4.0 | 257 | 6.8 | 1014.0 | 0 |
| 03:00 - 03:30 | 10.6 | 10.7 | 10.4 | 96 | 0.0 | 4.7 | 270 | 6.8 | 1014.1 | 0 |
| 03:30 - 04:00 | 10.9 | 10.9 | 10.7 | 95 | 0.0 | 1.8 | 219 | 5.0 | 1014.1 | 0 |
| 04:00 - 04:30 | 11.0 | 11.1 | 10.9 | 94 | 0.1 | 2.2 | 1 | 6.8 | 1014.0 | 0 |
| 04:30 - 05:00 | 11.1 | 11.1 | 11.0 | 93 | 0.3 | 2.9 | 345 | 5.8 | 1013.8 | 0 |
| 05:00 - 05:30 | 11.0 | 11.0 | 10.9 | 94 | 0.8 | 5.8 | 18 | 10.4 | 1013.6 | 5 |
| 05:30 - 06:00 | 11.0 | 11.1 | 10.9 | 95 | 0.2 | 2.5 | 73 | 8.3 | 1013.2 | 41 |
| 06:00 - 06:30 | 11.2 | 11.3 | 11.1 | 96 | 0.2 | 4.3 | 156 | 7.6 | 1013.3 | 42 |
| 06:30 - 07:00 | 11.2 | 11.5 | 11.1 | 96 | 0.1 | 2.9 | 207 | 6.5 | 1013.4 | 106 |
| 07:00 - 07:30 | 12.8 | 14.1 | 11.6 | 94 | 0.0 | 4.3 | 208 | 10.1 | 1013.1 | 412 |
| 07:30 - 08:00 | 13.4 | 13.7 | 13.2 | 88 | 0.0 | 3.6 | 131 | 9.0 | 1013.1 | 255 |
| 08:00 - 08:30 | 13.3 | 14.1 | 12.9 | 88 | 0.0 | 2.2 | 107 | 6.8 | 1013.1 | 286 |
| 08:30 - 09:00 | 14.3 | 15.4 | 13.6 | 82 | 0.0 | 4.3 | 27 | 11.2 | 1012.4 | 598 |
| 09:00 - 09:30 | 16.5 | 17.6 | 15.3 | 72 | 0.0 | 4.0 | 297 | 11.2 | 1011.6 | 757 |
| 09:30 - 10:00 | 17.9 | 18.2 | 17.6 | 69 | 0.0 | 6.8 | 140 | 13.7 | 1011.1 | 854 |
| 10:00 - 10:30 | 18.2 | 18.9 | 17.7 | 63 | 0.0 | 4.3 | 151 | 9.7 | 1010.8 | 882 |
| 10:30 - 11:00 | 18.7 | 19.2 | 18.2 | 60 | 0.0 | 4.0 | 75 | 10.4 | 1010.4 | 943 |
| 11:00 - 11:30 | 19.6 | 20.5 | 18.9 | 60 | 0.0 | 6.5 | 138 | 14.8 | 1009.6 | 668 |
| 11:30 - 12:00 | 19.2 | 19.8 | 18.8 | 57 | 0.0 | 7.9 | 184 | 14.0 | 1009.5 | 469 |
| 12:00 - 12:30 | 18.8 | 19.5 | 18.5 | 57 | 0.0 | 10.1 | 176 | 17.6 | 1009.4 | 301 |
| 12:30 - 13:00 | 17.9 | 18.5 | 17.1 | 64 | 0.0 | 12.6 | 161 | 21.6 | 1009.5 | 201 |
| 13:00 - 13:30 | 16.6 | 17.1 | 16.1 | 73 | 0.0 | 13.7 | 135 | 24.1 | 1009.7 | 143 |
| 13:30 - 14:00 | 14.8 | 16.1 | 13.9 | 83 | 0.7 | 9.0 | 142 | 17.3 | 1010.4 | 25 |
| 14:00 - 14:30 | 13.7 | 14.1 | 13.4 | 92 | 1.0 | 16.6 | 185 | 28.8 | 1010.7 | 71 |
| 14:30 - 15:00 | 13.8 | 14.0 | 13.5 | 93 | 0.4 | 8.6 | 184 | 18.0 | 1010.7 | 159 |
| 15:00 - 15:30 | 13.5 | 13.9 | 13.0 | 93 | 0.2 | 6.8 | 95 | 15.1 | 1010.5 | 91 |
| 15:30 - 16:00 | 13.1 | 13.3 | 12.8 | 95 | 0.0 | 7.9 | 84 | 14.0 | 1010.7 | 152 |
| 16:00 - 16:30 | 13.0 | 13.2 | 12.8 | 95 | 0.0 | 8.3 | 92 | 16.6 | 1010.8 | 126 |
| 16:30 - 17:00 | 13.0 | 13.3 | 12.6 | 93 | 0.0 | 8.3 | 116 | 13.3 | 1010.7 | 87 |
| 17:00 - 17:30 | 12.8 | 13.0 | 12.6 | 92 | 0.0 | 6.1 | 117 | 9.4 | 1010.7 | 108 |
| 17:30 - 18:00 | 12.7 | 12.7 | 12.6 | 93 | 0.0 | 4.7 | 130 | 8.3 | 1010.4 | 38 |
| 18:00 - 18:30 | 12.6 | 12.6 | 12.5 | 94 | 0.0 | 2.5 | 169 | 5.8 | 1010.7 | 8 |
| 18:30 - 19:00 | 12.4 | 12.6 | 11.1 | 95 | 0.5 | 9.0 | 261 | 37.8 | 1011.2 | 1 |
| 19:00 - 19:30 | 10.0 | 10.9 | 9.7 | 94 | 1.0 | 23.8 | 275 | 43.6 | 1012.6 | 1 |
| 19:30 - 20:00 | 9.6 | 9.7 | 9.5 | 95 | 0.7 | 13.7 | 295 | 25.9 | 1012.9 | 0 |
| 20:00 - 20:30 | 9.8 | 9.9 | 9.4 | 94 | 0.2 | 6.1 | 28 | 25.2 | 1011.9 | 0 |
| 20:30 - 21:00 | 9.2 | 9.5 | 8.6 | 94 | 0.0 | 5.4 | 210 | 11.9 | 1012.4 | 0 |
| 21:00 - 21:30 | 8.2 | 8.6 | 8.0 | 95 | 0.0 | 6.1 | 281 | 14.0 | 1013.0 | 0 |
| 21:30 - 22:00 | 8.2 | 8.4 | 7.9 | 96 | 0.0 | 2.9 | 225 | 9.0 | 1013.3 | 0 |
Les dades en taronja només han passat un control de qualitat automàtic. Resta pendent la seva validació definitiva.